sensor_id;sensor_type;location;lat;lon;timestamp;temperature;humidity
19906;DHT22;10115;50.906;4.438;2023-02-13T00:00:00;4.20;99.90
19906;DHT22;10115;50.906;4.438;2023-02-13T00:02:26;4.10;99.90
19906;DHT22;10115;50.906;4.438;2023-02-13T00:04:52;4.10;99.90
19906;DHT22;10115;50.906;4.438;2023-02-13T00:07:17;4.10;99.90
19906;DHT22;10115;50.906;4.438;2023-02-13T00:09:43;4.00;99.90
19906;DHT22;10115;50.906;4.438;2023-02-13T00:12:09;4.00;99.90
19906;DHT22;10115;50.906;4.438;2023-02-13T00:14:36;4.00;99.90
19906;DHT22;10115;50.906;4.438;2023-02-13T00:17:03;4.00;99.90
19906;DHT22;10115;50.906;4.438;2023-02-13T00:19:29;4.00;99.90
19906;DHT22;10115;50.906;4.438;2023-02-13T00:21:57;3.90;99.90
19906;DHT22;10115;50.906;4.438;2023-02-13T00:24:23;3.80;99.90
19906;DHT22;10115;50.906;4.438;2023-02-13T00:26:49;3.70;99.90
19906;DHT22;10115;50.906;4.438;2023-02-13T00:29:14;3.70;99.90
19906;DHT22;10115;50.906;4.438;2023-02-13T00:31:40;3.80;99.90
19906;DHT22;10115;50.906;4.438;2023-02-13T00:34:06;3.80;99.90
19906;DHT22;10115;50.906;4.438;2023-02-13T00:36:31;3.60;99.90
19906;DHT22;10115;50.906;4.438;2023-02-13T00:38:59;3.50;99.90
19906;DHT22;10115;50.906;4.438;2023-02-13T00:41:25;3.70;99.90
19906;DHT22;10115;50.906;4.438;2023-02-13T00:43:53;3.70;99.90
19906;DHT22;10115;50.906;4.438;2023-02-13T00:46:19;3.60;99.90
19906;DHT22;10115;50.906;4.438;2023-02-13T00:48:45;3.60;99.90
19906;DHT22;10115;50.906;4.438;2023-02-13T00:51:11;3.60;99.90
19906;DHT22;10115;50.906;4.438;2023-02-13T00:53:37;3.60;99.90
19906;DHT22;10115;50.906;4.438;2023-02-13T00:56:04;3.60;99.90
19906;DHT22;10115;50.906;4.438;2023-02-13T00:58:30;3.50;99.90
19906;DHT22;10115;50.906;4.438;2023-02-13T01:00:56;3.40;99.90
19906;DHT22;10115;50.906;4.438;2023-02-13T01:03:22;3.40;99.90
19906;DHT22;10115;50.906;4.438;2023-02-13T01:05:49;3.50;99.90
19906;DHT22;10115;50.906;4.438;2023-02-13T01:08:19;3.60;99.90
19906;DHT22;10115;50.906;4.438;2023-02-13T01:10:46;3.60;99.90
19906;DHT22;10115;50.906;4.438;2023-02-13T01:13:13;3.50;99.90
19906;DHT22;10115;50.906;4.438;2023-02-13T01:15:39;3.30;99.90
19906;DHT22;10115;50.906;4.438;2023-02-13T01:18:05;3.20;99.90
19906;DHT22;10115;50.906;4.438;2023-02-13T01:20:34;3.30;99.90
19906;DHT22;10115;50.906;4.438;2023-02-13T01:22:59;3.30;99.90
19906;DHT22;10115;50.906;4.438;2023-02-13T01:25:25;3.30;99.90
19906;DHT22;10115;50.906;4.438;2023-02-13T01:27:52;3.40;99.90
19906;DHT22;10115;50.906;4.438;2023-02-13T01:30:21;3.40;99.90
19906;DHT22;10115;50.906;4.438;2023-02-13T01:32:46;3.50;99.90
19906;DHT22;10115;50.906;4.438;2023-02-13T01:35:13;3.50;99.90
19906;DHT22;10115;50.906;4.438;2023-02-13T01:37:39;3.40;99.90
19906;DHT22;10115;50.906;4.438;2023-02-13T01:40:06;3.30;99.90
19906;DHT22;10115;50.906;4.438;2023-02-13T01:42:33;3.20;99.90
19906;DHT22;10115;50.906;4.438;2023-02-13T01:45:04;3.10;99.90
19906;DHT22;10115;50.906;4.438;2023-02-13T01:47:43;3.20;99.90
19906;DHT22;10115;50.906;4.438;2023-02-13T01:52:58;3.20;99.90
19906;DHT22;10115;50.906;4.438;2023-02-13T01:55:25;3.10;99.90
19906;DHT22;10115;50.906;4.438;2023-02-13T01:58:03;3.10;99.90
19906;DHT22;10115;50.906;4.438;2023-02-13T02:00:29;3.00;99.90
19906;DHT22;10115;50.906;4.438;2023-02-13T02:03:03;2.90;99.90
19906;DHT22;10115;50.906;4.438;2023-02-13T02:05:33;2.90;99.90
19906;DHT22;10115;50.906;4.438;2023-02-13T02:08:02;2.90;99.90
19906;DHT22;10115;50.906;4.438;2023-02-13T02:10:30;2.80;99.90
19906;DHT22;10115;50.906;4.438;2023-02-13T02:15:34;2.90;99.90
19906;DHT22;10115;50.906;4.438;2023-02-13T02:18:00;2.80;99.90
19906;DHT22;10115;50.906;4.438;2023-02-13T02:27:09;2.80;99.90
19906;DHT22;10115;50.906;4.438;2023-02-13T02:29:32;2.80;99.90
19906;DHT22;10115;50.906;4.438;2023-02-13T02:34:50;2.60;99.90
19906;DHT22;10115;50.906;4.438;2023-02-13T02:40:36;2.60;99.90
19906;DHT22;10115;50.906;4.438;2023-02-13T02:43:39;2.70;99.90
19906;DHT22;10115;50.906;4.438;2023-02-13T02:54:44;2.50;99.90
19906;DHT22;10115;50.906;4.438;2023-02-13T02:57:31;2.50;99.90
19906;DHT22;10115;50.906;4.438;2023-02-13T03:00:28;2.60;99.90
19906;DHT22;10115;50.906;4.438;2023-02-13T03:03:17;2.60;99.90
19906;DHT22;10115;50.906;4.438;2023-02-13T03:06:06;2.50;99.90
19906;DHT22;10115;50.906;4.438;2023-02-13T03:08:41;2.60;99.90
19906;DHT22;10115;50.906;4.438;2023-02-13T03:11:26;2.60;99.90
19906;DHT22;10115;50.906;4.438;2023-02-13T03:14:14;2.60;99.90
19906;DHT22;10115;50.906;4.438;2023-02-13T03:16:44;2.60;99.90
19906;DHT22;10115;50.906;4.438;2023-02-13T03:31:20;2.70;99.90
19906;DHT22;10115;50.906;4.438;2023-02-13T03:45:10;3.00;99.90
19906;DHT22;10115;50.906;4.438;2023-02-13T03:47:57;2.90;99.90
19906;DHT22;10115;50.906;4.438;2023-02-13T03:50:25;2.90;99.90
19906;DHT22;10115;50.906;4.438;2023-02-13T03:53:00;2.90;99.90
19906;DHT22;10115;50.906;4.438;2023-02-13T03:55:31;3.00;99.90
19906;DHT22;10115;50.906;4.438;2023-02-13T03:58:25;3.10;99.90
19906;DHT22;10115;50.906;4.438;2023-02-13T04:01:15;3.00;99.90
19906;DHT22;10115;50.906;4.438;2023-02-13T04:06:23;2.90;99.90
19906;DHT22;10115;50.906;4.438;2023-02-13T04:08:50;2.80;99.90
19906;DHT22;10115;50.906;4.438;2023-02-13T04:11:25;2.80;99.90
19906;DHT22;10115;50.906;4.438;2023-02-13T04:14:00;2.80;99.90
19906;DHT22;10115;50.906;4.438;2023-02-13T04:16:40;2.70;99.90
19906;DHT22;10115;50.906;4.438;2023-02-13T04:19:07;2.70;99.90
19906;DHT22;10115;50.906;4.438;2023-02-13T04:21:36;2.60;99.90
19906;DHT22;10115;50.906;4.438;2023-02-13T04:24:02;2.60;99.90
19906;DHT22;10115;50.906;4.438;2023-02-13T04:26:35;2.30;99.90
19906;DHT22;10115;50.906;4.438;2023-02-13T04:29:02;2.30;99.90
19906;DHT22;10115;50.906;4.438;2023-02-13T04:31:28;2.20;99.90
19906;DHT22;10115;50.906;4.438;2023-02-13T04:33:53;2.20;99.90
19906;DHT22;10115;50.906;4.438;2023-02-13T04:36:19;2.30;99.90
19906;DHT22;10115;50.906;4.438;2023-02-13T04:38:45;2.20;99.90
19906;DHT22;10115;50.906;4.438;2023-02-13T04:41:11;2.20;99.90
19906;DHT22;10115;50.906;4.438;2023-02-13T04:43:36;2.20;99.90
19906;DHT22;10115;50.906;4.438;2023-02-13T04:46:02;2.10;99.90
19906;DHT22;10115;50.906;4.438;2023-02-13T04:48:28;2.10;99.90
19906;DHT22;10115;50.906;4.438;2023-02-13T04:50:54;2.10;99.90
19906;DHT22;10115;50.906;4.438;2023-02-13T04:53:20;2.10;99.90
19906;DHT22;10115;50.906;4.438;2023-02-13T04:55:46;2.00;99.90
19906;DHT22;10115;50.906;4.438;2023-02-13T04:58:12;2.10;99.90
19906;DHT22;10115;50.906;4.438;2023-02-13T05:00:38;2.10;99.90
19906;DHT22;10115;50.906;4.438;2023-02-13T05:03:06;2.10;99.90
19906;DHT22;10115;50.906;4.438;2023-02-13T05:05:31;2.00;99.90
19906;DHT22;10115;50.906;4.438;2023-02-13T05:07:57;1.90;99.90
19906;DHT22;10115;50.906;4.438;2023-02-13T05:10:23;1.80;99.90
19906;DHT22;10115;50.906;4.438;2023-02-13T05:12:48;1.90;99.90
19906;DHT22;10115;50.906;4.438;2023-02-13T05:15:14;1.90;99.90
19906;DHT22;10115;50.906;4.438;2023-02-13T05:17:45;1.90;99.90
19906;DHT22;10115;50.906;4.438;2023-02-13T05:20:12;2.00;99.90
19906;DHT22;10115;50.906;4.438;2023-02-13T05:22:46;1.90;99.90
19906;DHT22;10115;50.906;4.438;2023-02-13T05:25:31;1.90;99.90
19906;DHT22;10115;50.906;4.438;2023-02-13T05:27:57;1.90;99.90
19906;DHT22;10115;50.906;4.438;2023-02-13T05:30:23;1.90;99.90
19906;DHT22;10115;50.906;4.438;2023-02-13T05:32:49;1.80;99.90
19906;DHT22;10115;50.906;4.438;2023-02-13T05:35:17;1.70;99.90
19906;DHT22;10115;50.906;4.438;2023-02-13T05:37:43;1.70;99.90
19906;DHT22;10115;50.906;4.438;2023-02-13T05:40:10;1.70;99.90
19906;DHT22;10115;50.906;4.438;2023-02-13T05:42:36;1.70;99.90
19906;DHT22;10115;50.906;4.438;2023-02-13T05:45:02;1.90;99.90
19906;DHT22;10115;50.906;4.438;2023-02-13T05:47:28;1.80;99.90
19906;DHT22;10115;50.906;4.438;2023-02-13T05:49:53;1.80;99.90
19906;DHT22;10115;50.906;4.438;2023-02-13T05:52:19;1.80;99.90
19906;DHT22;10115;50.906;4.438;2023-02-13T05:54:45;1.80;99.90
19906;DHT22;10115;50.906;4.438;2023-02-13T05:57:10;1.70;99.90
19906;DHT22;10115;50.906;4.438;2023-02-13T05:59:36;1.80;99.90
19906;DHT22;10115;50.906;4.438;2023-02-13T06:02:02;1.70;99.90
19906;DHT22;10115;50.906;4.438;2023-02-13T06:04:27;1.60;99.90
19906;DHT22;10115;50.906;4.438;2023-02-13T06:06:53;1.50;99.90
19906;DHT22;10115;50.906;4.438;2023-02-13T06:09:18;1.40;99.90
19906;DHT22;10115;50.906;4.438;2023-02-13T06:11:44;1.50;99.90
19906;DHT22;10115;50.906;4.438;2023-02-13T06:14:10;1.50;99.90
19906;DHT22;10115;50.906;4.438;2023-02-13T06:16:36;1.50;99.90
19906;DHT22;10115;50.906;4.438;2023-02-13T06:19:02;1.60;99.90
19906;DHT22;10115;50.906;4.438;2023-02-13T06:21:27;1.50;99.90
19906;DHT22;10115;50.906;4.438;2023-02-13T06:23:53;1.50;99.90
19906;DHT22;10115;50.906;4.438;2023-02-13T06:26:19;1.50;99.90
19906;DHT22;10115;50.906;4.438;2023-02-13T06:28:44;1.50;99.90
19906;DHT22;10115;50.906;4.438;2023-02-13T06:31:10;1.40;99.90
19906;DHT22;10115;50.906;4.438;2023-02-13T06:33:36;1.40;99.90
19906;DHT22;10115;50.906;4.438;2023-02-13T06:36:01;1.40;99.90
19906;DHT22;10115;50.906;4.438;2023-02-13T06:38:27;1.30;99.90
19906;DHT22;10115;50.906;4.438;2023-02-13T06:40:58;1.30;99.90
19906;DHT22;10115;50.906;4.438;2023-02-13T06:43:25;1.20;99.90
19906;DHT22;10115;50.906;4.438;2023-02-13T06:45:51;1.30;99.90
19906;DHT22;10115;50.906;4.438;2023-02-13T06:48:18;1.40;99.90
19906;DHT22;10115;50.906;4.438;2023-02-13T06:50:44;1.40;99.90
19906;DHT22;10115;50.906;4.438;2023-02-13T06:53:10;1.50;99.90
19906;DHT22;10115;50.906;4.438;2023-02-13T06:55:36;1.50;99.90
19906;DHT22;10115;50.906;4.438;2023-02-13T06:58:04;1.50;99.90
19906;DHT22;10115;50.906;4.438;2023-02-13T07:00:29;1.60;99.90
19906;DHT22;10115;50.906;4.438;2023-02-13T07:03:00;1.40;99.90
19906;DHT22;10115;50.906;4.438;2023-02-13T07:05:26;1.40;99.90
19906;DHT22;10115;50.906;4.438;2023-02-13T07:07:52;1.40;99.90
19906;DHT22;10115;50.906;4.438;2023-02-13T07:10:18;1.30;99.90
19906;DHT22;10115;50.906;4.438;2023-02-13T07:12:43;1.30;99.90
19906;DHT22;10115;50.906;4.438;2023-02-13T07:15:09;1.30;99.90
19906;DHT22;10115;50.906;4.438;2023-02-13T07:17:35;1.40;99.90
19906;DHT22;10115;50.906;4.438;2023-02-13T07:20:01;1.50;99.90
19906;DHT22;10115;50.906;4.438;2023-02-13T07:22:30;1.50;99.90
19906;DHT22;10115;50.906;4.438;2023-02-13T07:25:03;1.60;99.90
19906;DHT22;10115;50.906;4.438;2023-02-13T07:27:28;1.70;99.90
19906;DHT22;10115;50.906;4.438;2023-02-13T07:29:55;1.80;99.90
19906;DHT22;10115;50.906;4.438;2023-02-13T07:32:23;1.70;99.90
19906;DHT22;10115;50.906;4.438;2023-02-13T07:34:48;1.80;99.90
19906;DHT22;10115;50.906;4.438;2023-02-13T07:37:14;1.90;99.90
19906;DHT22;10115;50.906;4.438;2023-02-13T07:39:40;2.10;99.90
19906;DHT22;10115;50.906;4.438;2023-02-13T07:42:05;2.20;99.90
19906;DHT22;10115;50.906;4.438;2023-02-13T07:44:31;2.30;99.90
19906;DHT22;10115;50.906;4.438;2023-02-13T07:46:57;2.40;99.90
19906;DHT22;10115;50.906;4.438;2023-02-13T07:49:23;2.50;99.90
19906;DHT22;10115;50.906;4.438;2023-02-13T07:51:49;2.60;99.90
19906;DHT22;10115;50.906;4.438;2023-02-13T07:54:15;2.70;99.90
19906;DHT22;10115;50.906;4.438;2023-02-13T07:56:41;2.80;99.90
19906;DHT22;10115;50.906;4.438;2023-02-13T07:59:07;2.90;99.90
19906;DHT22;10115;50.906;4.438;2023-02-13T08:01:32;3.00;99.90
19906;DHT22;10115;50.906;4.438;2023-02-13T08:03:58;3.10;99.90
19906;DHT22;10115;50.906;4.438;2023-02-13T08:06:27;3.10;99.90
19906;DHT22;10115;50.906;4.438;2023-02-13T08:08:52;3.20;99.90
19906;DHT22;10115;50.906;4.438;2023-02-13T08:11:38;3.20;99.90
19906;DHT22;10115;50.906;4.438;2023-02-13T08:14:24;3.30;99.90
19906;DHT22;10115;50.906;4.438;2023-02-13T08:16:50;3.40;99.90
19906;DHT22;10115;50.906;4.438;2023-02-13T08:19:16;3.60;99.90
19906;DHT22;10115;50.906;4.438;2023-02-13T08:21:42;3.70;99.90
19906;DHT22;10115;50.906;4.438;2023-02-13T08:24:08;3.80;99.90
19906;DHT22;10115;50.906;4.438;2023-02-13T08:26:34;3.90;99.90
19906;DHT22;10115;50.906;4.438;2023-02-13T08:29:00;4.00;99.90
19906;DHT22;10115;50.906;4.438;2023-02-13T08:31:26;4.20;99.90
19906;DHT22;10115;50.906;4.438;2023-02-13T08:33:54;4.40;99.90
19906;DHT22;10115;50.906;4.438;2023-02-13T08:36:22;4.50;99.90
19906;DHT22;10115;50.906;4.438;2023-02-13T08:38:48;4.70;99.90
19906;DHT22;10115;50.906;4.438;2023-02-13T08:41:14;4.80;99.90
19906;DHT22;10115;50.906;4.438;2023-02-13T08:43:40;4.90;99.90
19906;DHT22;10115;50.906;4.438;2023-02-13T08:46:05;4.90;99.90
19906;DHT22;10115;50.906;4.438;2023-02-13T08:48:31;5.00;99.90
19906;DHT22;10115;50.906;4.438;2023-02-13T08:50:57;5.10;99.90
19906;DHT22;10115;50.906;4.438;2023-02-13T08:53:23;5.10;99.90
19906;DHT22;10115;50.906;4.438;2023-02-13T08:55:56;5.10;99.90
19906;DHT22;10115;50.906;4.438;2023-02-13T08:58:22;5.20;99.90
19906;DHT22;10115;50.906;4.438;2023-02-13T09:00:48;5.40;99.90
19906;DHT22;10115;50.906;4.438;2023-02-13T09:03:14;5.50;99.90
19906;DHT22;10115;50.906;4.438;2023-02-13T09:05:40;5.50;99.90
19906;DHT22;10115;50.906;4.438;2023-02-13T09:08:05;5.50;99.90
19906;DHT22;10115;50.906;4.438;2023-02-13T09:10:32;5.70;99.90
19906;DHT22;10115;50.906;4.438;2023-02-13T09:12:58;5.60;99.90
19906;DHT22;10115;50.906;4.438;2023-02-13T09:15:25;5.70;99.90
19906;DHT22;10115;50.906;4.438;2023-02-13T09:17:51;5.70;99.90
19906;DHT22;10115;50.906;4.438;2023-02-13T09:20:17;5.70;99.90
19906;DHT22;10115;50.906;4.438;2023-02-13T09:22:43;5.80;99.90
19906;DHT22;10115;50.906;4.438;2023-02-13T09:25:09;5.90;99.90
19906;DHT22;10115;50.906;4.438;2023-02-13T09:27:35;6.10;99.90
19906;DHT22;10115;50.906;4.438;2023-02-13T09:30:04;6.20;99.90
19906;DHT22;10115;50.906;4.438;2023-02-13T09:32:30;6.30;99.90
19906;DHT22;10115;50.906;4.438;2023-02-13T09:34:56;6.40;99.90
19906;DHT22;10115;50.906;4.438;2023-02-13T09:37:21;6.60;99.90
19906;DHT22;10115;50.906;4.438;2023-02-13T09:39:47;6.70;99.90
19906;DHT22;10115;50.906;4.438;2023-02-13T09:42:32;7.00;99.90
19906;DHT22;10115;50.906;4.438;2023-02-13T09:45:03;7.00;99.90
19906;DHT22;10115;50.906;4.438;2023-02-13T09:47:33;6.90;99.90
19906;DHT22;10115;50.906;4.438;2023-02-13T09:50:17;6.90;99.90
19906;DHT22;10115;50.906;4.438;2023-02-13T09:52:45;6.90;99.90
19906;DHT22;10115;50.906;4.438;2023-02-13T09:55:16;7.10;99.90
19906;DHT22;10115;50.906;4.438;2023-02-13T10:00:36;7.30;99.90
19906;DHT22;10115;50.906;4.438;2023-02-13T10:03:20;7.40;99.90
19906;DHT22;10115;50.906;4.438;2023-02-13T10:06:12;7.70;99.90
19906;DHT22;10115;50.906;4.438;2023-02-13T10:11:21;7.80;99.90
19906;DHT22;10115;50.906;4.438;2023-02-13T10:21:57;8.10;99.90
19906;DHT22;10115;50.906;4.438;2023-02-13T10:24:49;8.30;99.90
19906;DHT22;10115;50.906;4.438;2023-02-13T10:27:21;8.30;99.90
19906;DHT22;10115;50.906;4.438;2023-02-13T10:35:03;8.70;99.90
19906;DHT22;10115;50.906;4.438;2023-02-13T10:37:35;8.80;99.90
19906;DHT22;10115;50.906;4.438;2023-02-13T10:40:04;8.90;99.90
19906;DHT22;10115;50.906;4.438;2023-02-13T10:48:17;9.20;99.90
19906;DHT22;10115;50.906;4.438;2023-02-13T10:51:07;9.30;99.90
19906;DHT22;10115;50.906;4.438;2023-02-13T10:53:42;9.40;99.90
19906;DHT22;10115;50.906;4.438;2023-02-13T10:56:27;9.60;99.90
19906;DHT22;10115;50.906;4.438;2023-02-13T11:04:43;9.80;99.90
19906;DHT22;10115;50.906;4.438;2023-02-13T11:07:17;9.70;99.90
19906;DHT22;10115;50.906;4.438;2023-02-13T11:09:46;9.70;99.90
19906;DHT22;10115;50.906;4.438;2023-02-13T11:12:30;9.70;99.90
19906;DHT22;10115;50.906;4.438;2023-02-13T11:15:06;9.70;99.90
19906;DHT22;10115;50.906;4.438;2023-02-13T11:17:40;9.90;99.90
19906;DHT22;10115;50.906;4.438;2023-02-13T11:22:56;10.20;99.90
19906;DHT22;10115;50.906;4.438;2023-02-13T11:25:37;10.20;99.90
19906;DHT22;10115;50.906;4.438;2023-02-13T11:28:15;10.20;99.90
19906;DHT22;10115;50.906;4.438;2023-02-13T11:30:42;10.20;99.90
19906;DHT22;10115;50.906;4.438;2023-02-13T11:33:20;10.20;99.90
19906;DHT22;10115;50.906;4.438;2023-02-13T11:35:47;10.30;99.90
19906;DHT22;10115;50.906;4.438;2023-02-13T11:40:47;10.40;99.90
19906;DHT22;10115;50.906;4.438;2023-02-13T11:43:28;10.70;99.90
19906;DHT22;10115;50.906;4.438;2023-02-13T11:46:23;10.90;99.90
19906;DHT22;10115;50.906;4.438;2023-02-13T11:49:05;11.00;99.90
19906;DHT22;10115;50.906;4.438;2023-02-13T11:51:39;10.90;99.90
19906;DHT22;10115;50.906;4.438;2023-02-13T11:54:08;10.80;99.90
19906;DHT22;10115;50.906;4.438;2023-02-13T11:56:58;10.80;99.90
19906;DHT22;10115;50.906;4.438;2023-02-13T11:59:28;10.70;99.90
19906;DHT22;10115;50.906;4.438;2023-02-13T12:02:30;10.80;99.90
19906;DHT22;10115;50.906;4.438;2023-02-13T12:05:22;10.80;99.90
19906;DHT22;10115;50.906;4.438;2023-02-13T12:07:48;11.00;99.90
19906;DHT22;10115;50.906;4.438;2023-02-13T12:10:19;11.10;99.90
19906;DHT22;10115;50.906;4.438;2023-02-13T12:12:58;11.10;99.90
19906;DHT22;10115;50.906;4.438;2023-02-13T12:15:29;11.10;99.90
19906;DHT22;10115;50.906;4.438;2023-02-13T12:26:30;11.20;99.90
19906;DHT22;10115;50.906;4.438;2023-02-13T12:29:26;11.40;99.90
19906;DHT22;10115;50.906;4.438;2023-02-13T12:32:17;11.50;99.90
19906;DHT22;10115;50.906;4.438;2023-02-13T13:01:17;11.80;99.90
19906;DHT22;10115;50.906;4.438;2023-02-13T13:04:07;11.80;99.90
19906;DHT22;10115;50.906;4.438;2023-02-13T13:09:38;11.80;99.90
19906;DHT22;10115;50.906;4.438;2023-02-13T13:18:38;12.20;99.90
19906;DHT22;10115;50.906;4.438;2023-02-13T13:21:18;12.00;99.90
19906;DHT22;10115;50.906;4.438;2023-02-13T13:23:53;12.10;99.90
19906;DHT22;10115;50.906;4.438;2023-02-13T13:28:53;12.30;99.90
19906;DHT22;10115;50.906;4.438;2023-02-13T13:31:21;12.50;99.90
19906;DHT22;10115;50.906;4.438;2023-02-13T13:33:50;12.60;99.90
19906;DHT22;10115;50.906;4.438;2023-02-13T13:43:04;12.80;99.90
19906;DHT22;10115;50.906;4.438;2023-02-13T13:45:48;12.70;99.90
19906;DHT22;10115;50.906;4.438;2023-02-13T13:51:14;12.90;99.90
19906;DHT22;10115;50.906;4.438;2023-02-13T13:56:26;13.10;99.90
19906;DHT22;10115;50.906;4.438;2023-02-13T13:58:51;13.30;99.90
19906;DHT22;10115;50.906;4.438;2023-02-13T14:01:27;13.30;99.90
19906;DHT22;10115;50.906;4.438;2023-02-13T14:06:25;13.70;99.90
19906;DHT22;10115;50.906;4.438;2023-02-13T14:08:55;14.40;99.90
19906;DHT22;10115;50.906;4.438;2023-02-13T14:11:29;15.70;99.90
19906;DHT22;10115;50.906;4.438;2023-02-13T14:13:55;17.10;99.90
19906;DHT22;10115;50.906;4.438;2023-02-13T14:16:44;18.50;99.90
19906;DHT22;10115;50.906;4.438;2023-02-13T14:19:32;19.30;99.90
19906;DHT22;10115;50.906;4.438;2023-02-13T14:24:53;20.50;99.90
19906;DHT22;10115;50.906;4.438;2023-02-13T14:27:22;21.30;99.90
19906;DHT22;10115;50.906;4.438;2023-02-13T14:29:48;21.30;99.90
19906;DHT22;10115;50.906;4.438;2023-02-13T14:32:30;21.30;99.90
19906;DHT22;10115;50.906;4.438;2023-02-13T14:35:04;21.00;99.90
19906;DHT22;10115;50.906;4.438;2023-02-13T14:37:34;20.90;99.90
19906;DHT22;10115;50.906;4.438;2023-02-13T14:45:32;20.90;99.90
19906;DHT22;10115;50.906;4.438;2023-02-13T14:48:05;21.30;99.90
19906;DHT22;10115;50.906;4.438;2023-02-13T14:50:50;22.20;99.90
19906;DHT22;10115;50.906;4.438;2023-02-13T14:53:23;22.80;99.90
19906;DHT22;10115;50.906;4.438;2023-02-13T14:56:20;23.10;99.90
19906;DHT22;10115;50.906;4.438;2023-02-13T15:01:33;21.30;99.90
19906;DHT22;10115;50.906;4.438;2023-02-13T15:04:21;21.40;99.90
19906;DHT22;10115;50.906;4.438;2023-02-13T15:06:49;22.00;99.90
19906;DHT22;10115;50.906;4.438;2023-02-13T15:09:27;22.20;99.90
19906;DHT22;10115;50.906;4.438;2023-02-13T15:11:56;21.70;99.90
19906;DHT22;10115;50.906;4.438;2023-02-13T15:14:35;21.20;99.90
19906;DHT22;10115;50.906;4.438;2023-02-13T15:19:37;21.10;99.90
19906;DHT22;10115;50.906;4.438;2023-02-13T15:22:04;20.70;99.90
19906;DHT22;10115;50.906;4.438;2023-02-13T15:24:43;20.30;99.90
19906;DHT22;10115;50.906;4.438;2023-02-13T15:27:27;19.70;99.90
19906;DHT22;10115;50.906;4.438;2023-02-13T15:32:32;19.20;99.90
19906;DHT22;10115;50.906;4.438;2023-02-13T15:34:58;18.80;99.90
19906;DHT22;10115;50.906;4.438;2023-02-13T15:37:28;17.70;99.90
19906;DHT22;10115;50.906;4.438;2023-02-13T15:39:54;18.40;99.90
19906;DHT22;10115;50.906;4.438;2023-02-13T15:42:24;19.60;99.90
19906;DHT22;10115;50.906;4.438;2023-02-13T15:44:52;19.70;99.90
19906;DHT22;10115;50.906;4.438;2023-02-13T15:47:27;19.50;99.90
19906;DHT22;10115;50.906;4.438;2023-02-13T15:49:54;19.70;99.90
19906;DHT22;10115;50.906;4.438;2023-02-13T15:52:33;19.20;99.90
19906;DHT22;10115;50.906;4.438;2023-02-13T15:55:00;19.70;99.90
19906;DHT22;10115;50.906;4.438;2023-02-13T15:57:27;20.10;99.90
19906;DHT22;10115;50.906;4.438;2023-02-13T15:59:54;20.30;99.90
19906;DHT22;10115;50.906;4.438;2023-02-13T16:02:32;20.50;99.90
19906;DHT22;10115;50.906;4.438;2023-02-13T16:05:00;20.20;99.90
19906;DHT22;10115;50.906;4.438;2023-02-13T16:07:26;18.90;99.90
19906;DHT22;10115;50.906;4.438;2023-02-13T16:09:51;16.80;99.90
19906;DHT22;10115;50.906;4.438;2023-02-13T16:12:46;16.00;99.90
19906;DHT22;10115;50.906;4.438;2023-02-13T16:15:16;15.40;99.90
19906;DHT22;10115;50.906;4.438;2023-02-13T16:17:44;14.70;99.90
19906;DHT22;10115;50.906;4.438;2023-02-13T16:22:49;14.00;99.90
19906;DHT22;10115;50.906;4.438;2023-02-13T16:25:35;13.60;99.90
19906;DHT22;10115;50.906;4.438;2023-02-13T16:28:17;13.10;99.90
19906;DHT22;10115;50.906;4.438;2023-02-13T16:30:45;12.70;99.90
19906;DHT22;10115;50.906;4.438;2023-02-13T16:38:26;11.80;99.90
19906;DHT22;10115;50.906;4.438;2023-02-13T16:40:53;11.60;99.90
19906;DHT22;10115;50.906;4.438;2023-02-13T16:48:57;11.50;99.90
19906;DHT22;10115;50.906;4.438;2023-02-13T16:51:33;11.30;99.90
19906;DHT22;10115;50.906;4.438;2023-02-13T16:54:23;11.10;99.90
19906;DHT22;10115;50.906;4.438;2023-02-13T16:56:50;11.20;99.90
19906;DHT22;10115;50.906;4.438;2023-02-13T17:01:42;10.80;99.90
19906;DHT22;10115;50.906;4.438;2023-02-13T17:04:37;10.70;99.90
19906;DHT22;10115;50.906;4.438;2023-02-13T17:07:06;10.50;99.90
19906;DHT22;10115;50.906;4.438;2023-02-13T17:09:35;10.40;99.90
19906;DHT22;10115;50.906;4.438;2023-02-13T17:12:01;10.40;99.90
19906;DHT22;10115;50.906;4.438;2023-02-13T17:14:26;10.30;99.90
19906;DHT22;10115;50.906;4.438;2023-02-13T17:16:52;10.20;99.90
19906;DHT22;10115;50.906;4.438;2023-02-13T17:19:18;10.00;99.90
19906;DHT22;10115;50.906;4.438;2023-02-13T17:21:44;9.90;99.90
19906;DHT22;10115;50.906;4.438;2023-02-13T17:24:16;9.90;99.90
19906;DHT22;10115;50.906;4.438;2023-02-13T17:26:42;9.70;99.90
19906;DHT22;10115;50.906;4.438;2023-02-13T17:29:08;9.60;99.90
19906;DHT22;10115;50.906;4.438;2023-02-13T17:31:34;9.50;99.90
19906;DHT22;10115;50.906;4.438;2023-02-13T17:34:00;9.50;99.90
19906;DHT22;10115;50.906;4.438;2023-02-13T17:36:26;9.30;99.90
19906;DHT22;10115;50.906;4.438;2023-02-13T17:38:51;9.30;99.90
19906;DHT22;10115;50.906;4.438;2023-02-13T17:41:17;9.40;99.90
19906;DHT22;10115;50.906;4.438;2023-02-13T17:43:43;9.40;99.90
19906;DHT22;10115;50.906;4.438;2023-02-13T17:46:08;9.50;99.90
19906;DHT22;10115;50.906;4.438;2023-02-13T17:48:34;9.60;99.90
19906;DHT22;10115;50.906;4.438;2023-02-13T17:51:00;9.50;99.90
19906;DHT22;10115;50.906;4.438;2023-02-13T17:53:27;9.40;99.90
19906;DHT22;10115;50.906;4.438;2023-02-13T17:55:56;9.30;99.90
19906;DHT22;10115;50.906;4.438;2023-02-13T17:58:22;9.20;99.90
19906;DHT22;10115;50.906;4.438;2023-02-13T18:00:48;9.20;99.90
19906;DHT22;10115;50.906;4.438;2023-02-13T18:03:14;9.20;99.90
19906;DHT22;10115;50.906;4.438;2023-02-13T18:05:40;9.20;99.90
19906;DHT22;10115;50.906;4.438;2023-02-13T18:08:06;9.00;99.90
19906;DHT22;10115;50.906;4.438;2023-02-13T18:10:34;8.90;99.90
19906;DHT22;10115;50.906;4.438;2023-02-13T18:13:00;8.80;99.90
19906;DHT22;10115;50.906;4.438;2023-02-13T18:15:34;8.80;99.90
19906;DHT22;10115;50.906;4.438;2023-02-13T18:17:59;8.80;99.90
19906;DHT22;10115;50.906;4.438;2023-02-13T18:20:25;8.80;99.90
19906;DHT22;10115;50.906;4.438;2023-02-13T18:22:51;8.70;99.90
19906;DHT22;10115;50.906;4.438;2023-02-13T18:25:19;8.70;99.90
19906;DHT22;10115;50.906;4.438;2023-02-13T18:27:45;8.60;99.90
19906;DHT22;10115;50.906;4.438;2023-02-13T18:30:13;8.60;99.90
19906;DHT22;10115;50.906;4.438;2023-02-13T18:32:39;8.60;99.90
19906;DHT22;10115;50.906;4.438;2023-02-13T18:35:05;8.60;99.90
19906;DHT22;10115;50.906;4.438;2023-02-13T18:37:32;8.50;99.90
19906;DHT22;10115;50.906;4.438;2023-02-13T18:40:01;8.50;99.90
19906;DHT22;10115;50.906;4.438;2023-02-13T18:42:29;8.40;99.90
19906;DHT22;10115;50.906;4.438;2023-02-13T18:44:55;8.40;99.90
19906;DHT22;10115;50.906;4.438;2023-02-13T18:47:21;8.30;99.90
19906;DHT22;10115;50.906;4.438;2023-02-13T18:49:46;8.30;99.90
19906;DHT22;10115;50.906;4.438;2023-02-13T18:52:12;8.30;99.90
19906;DHT22;10115;50.906;4.438;2023-02-13T18:54:38;8.30;99.90
19906;DHT22;10115;50.906;4.438;2023-02-13T18:57:04;8.20;99.90
19906;DHT22;10115;50.906;4.438;2023-02-13T18:59:30;8.10;99.90
19906;DHT22;10115;50.906;4.438;2023-02-13T19:01:56;8.10;99.90